Ha — WDI7878 — position and weather

sailwx.info

Track history (hours):
 
Tides and Currents Weather Stations Pressure Air Temp Water Temp Dewpoint Dewpoint Depression Visibility Wind Speed Wind Dir Waves Ship Positions

Ha

Owner: McDowell, Cameron, Davie, FL. More information available from US FCC via Universal Licensing System.

Last reported at 2018-May-08 11:53 UTC. Time now 2018-Jul-20 08:21 UTC.
Position N 37°58' E 015°25'.
Warning: this ship's position is months out of date.

Type: Pleasure craft. MMSI: 367733090.

Date/timePositionNaut miles runAvg speedWind from/ knotsBaromVisibWave heightAir tempDewpointWater temp
2018-May-08 11:53N 37°58' E 015°25'610.0
2018-May-08 11:15N 38°03' E 015°29'2 9.9
2018-May-08 11:00N 38°05' E 015°31'4 8.8
2018-May-08 10:30N 38°09' E 015°33'510.2
2018-May-08 10:00N 38°14' E 015°36'4 4.8
2018-May-08 09:08N 38°18' E 015°37'1 9.6
2018-May-08 09:00N 38°18' E 015°35'5 9.3
2018-May-08 08:30N 38°20' E 015°29'5 9.3
2018-May-08 07:59N 38°21' E 015°23'5 9.5
2018-May-08 07:30N 38°22' E 015°18'5 9.6
2018-May-08 07:00N 38°23' E 015°12'6 9.6
2018-May-08 06:20N 38°25' E 015°04'5 0.2
2018-May-07 07:37N 38°25' E 014°58'3 0.1
2018-May-06 08:47N 38°28' E 014°57'1 3.2
2018-May-06 08:30N 38°28' E 014°58'  
2018-May-01 10:03N 40°36' E 014°32'0 7.7
2018-May-01 10:01N 40°36' E 014°32'3 6.1
2018-May-01 09:30N 40°37' E 014°28'4 8.4
2018-May-01 09:01N 40°35' E 014°23'5 8.5
2018-May-01 08:27N 40°34' E 014°17'2 0.4
2018-May-01 03:32N 40°33' E 014°15'0 0.0
2018-May-01 01:17N 40°33' E 014°15'0 0.0
2018-May-01 00:56N 40°33' E 014°15'0 0.0
2018-May-01 00:26N 40°33' E 014°15'0 0.0
2018-Apr-30 23:59N 40°33' E 014°15'0 0.0
2018-Apr-30 23:20N 40°33' E 014°15'0 0.0
2018-Apr-30 22:50N 40°33' E 014°15'0 0.0
2018-Apr-30 22:26N 40°33' E 014°15'0 0.0
2018-Apr-30 20:59N 40°33' E 014°15'0 0.0
2018-Apr-30 04:13N 40°33' E 014°15'0 0.0
2018-Apr-30 03:55N 40°33' E 014°15'0 0.0
2018-Apr-30 03:01N 40°33' E 014°15'0 0.0
2018-Apr-30 02:55N 40°33' E 014°15'0 0.0
2018-Apr-30 02:28N 40°33' E 014°15'0 0.0
2018-Apr-30 01:37N 40°33' E 014°15'0 0.0
2018-Apr-30 01:28N 40°33' E 014°15'0 0.0
2018-Apr-30 00:58N 40°33' E 014°15'0 0.0
2018-Apr-30 00:28N 40°33' E 014°15'0 0.0
2018-Apr-29 23:58N 40°33' E 014°15'0 0.0
2018-Apr-29 23:25N 40°33' E 014°15'0 0.0
2018-Apr-29 22:58N 40°33' E 014°15'0 0.0
2018-Apr-29 21:28N 40°33' E 014°15'0 0.0
2018-Apr-29 15:54N 40°33' E 014°15'3 6.2
2018-Apr-29 15:29N 40°35' E 014°17'4 7.4
2018-Apr-29 15:00N 40°38' E 014°20'4 7.7
2018-Apr-29 14:30N 40°40' E 014°24'4 0.3
2018-Apr-29 01:00N 40°43' E 014°28'0 0.0
2018-Apr-29 00:30N 40°43' E 014°28'  
Track history (hours):
 
Tides and Currents Weather Stations Pressure Air Temp Water Temp Dewpoint Dewpoint Depression Visibility Wind Speed Wind Dir Waves Ship Positions

Ha

Owner: McDowell, Cameron, Davie, FL. More information available from US FCC via Universal Licensing System.

Last reported at 2018-May-08 11:53 UTC. Time now 2018-Jul-20 08:21 UTC.
Position N 37°58' E 015°25'.
Warning: this ship's position is months out of date.

Type: Pleasure craft. MMSI: 367733090.

Date/timePositionNaut miles runAvg speedWind from/ knotsBaromVisibWave heightAir tempDewpointWater temp
2018-May-08 11:53N 37°58' E 015°25'610.0
2018-May-08 11:15N 38°03' E 015°29'2 9.9
2018-May-08 11:00N 38°05' E 015°31'4 8.8
2018-May-08 10:30N 38°09' E 015°33'510.2
2018-May-08 10:00N 38°14' E 015°36'4 4.8
2018-May-08 09:08N 38°18' E 015°37'1 9.6
2018-May-08 09:00N 38°18' E 015°35'5 9.3
2018-May-08 08:30N 38°20' E 015°29'5 9.3
2018-May-08 07:59N 38°21' E 015°23'5 9.5
2018-May-08 07:30N 38°22' E 015°18'5 9.6
2018-May-08 07:00N 38°23' E 015°12'6 9.6
2018-May-08 06:20N 38°25' E 015°04'5 0.2
2018-May-07 07:37N 38°25' E 014°58'3 0.1
2018-May-06 08:47N 38°28' E 014°57'1 3.2
2018-May-06 08:30N 38°28' E 014°58'  
2018-May-01 10:03N 40°36' E 014°32'0 7.7
2018-May-01 10:01N 40°36' E 014°32'3 6.1
2018-May-01 09:30N 40°37' E 014°28'4 8.4
2018-May-01 09:01N 40°35' E 014°23'5 8.5
2018-May-01 08:27N 40°34' E 014°17'2 0.4
2018-May-01 03:32N 40°33' E 014°15'0 0.0
2018-May-01 01:17N 40°33' E 014°15'0 0.0
2018-May-01 00:56N 40°33' E 014°15'0 0.0
2018-May-01 00:26N 40°33' E 014°15'0 0.0
2018-Apr-30 23:59N 40°33' E 014°15'0 0.0
2018-Apr-30 23:20N 40°33' E 014°15'0 0.0
2018-Apr-30 22:50N 40°33' E 014°15'0 0.0
2018-Apr-30 22:26N 40°33' E 014°15'0 0.0
2018-Apr-30 20:59N 40°33' E 014°15'0 0.0
2018-Apr-30 04:13N 40°33' E 014°15'0 0.0
2018-Apr-30 03:55N 40°33' E 014°15'0 0.0
2018-Apr-30 03:01N 40°33' E 014°15'0 0.0
2018-Apr-30 02:55N 40°33' E 014°15'0 0.0
2018-Apr-30 02:28N 40°33' E 014°15'0 0.0
2018-Apr-30 01:37N 40°33' E 014°15'0 0.0
2018-Apr-30 01:28N 40°33' E 014°15'0 0.0
2018-Apr-30 00:58N 40°33' E 014°15'0 0.0
2018-Apr-30 00:28N 40°33' E 014°15'0 0.0
2018-Apr-29 23:58N 40°33' E 014°15'0 0.0
2018-Apr-29 23:25N 40°33' E 014°15'0 0.0
2018-Apr-29 22:58N 40°33' E 014°15'0 0.0
2018-Apr-29 21:28N 40°33' E 014°15'0 0.0
2018-Apr-29 15:54N 40°33' E 014°15'3 6.2
2018-Apr-29 15:29N 40°35' E 014°17'4 7.4
2018-Apr-29 15:00N 40°38' E 014°20'4 7.7
2018-Apr-29 14:30N 40°40' E 014°24'4 0.3
2018-Apr-29 01:00N 40°43' E 014°28'0 0.0
2018-Apr-29 00:30N 40°43' E 014°28'  

Dump ship's entire track history